Terminal Aerodrome Forecast
Issued by NWS Wilmington, OH

Current Version | Previous Version | Graphics & Text | Print | Product List | Glossary On
Versions: 1 2 3 4 5 6 7 8 9 10 11 12 13 14 15 16 17 18 19 20 21 22 23 24 25 26 27 28 29 30 31 32 33 34
245
FTUS41 KILN 291724
TAFCVG
TAF
KCVG 291724Z 2918/3024 24004KT P6SM VCSH BKN035
     FM292200 24005KT P6SM VCTS BKN035CB
     FM300300 00000KT P6SM VCSH BKN040
     FM300800 00000KT 4SM BR SCT035 BKN250
     FM301300 24006KT P6SM SCT035
     FM301700 24006KT P6SM VCTS BKN035CB
     FM302000 24006KT P6SM VCSH BKN050=

USA.gov is the U.S. government's official web portal to all federal, state and local government web resources and services.